TimeCDT,TemperatureF,Dew PointF,Humidity,Sea Level PressureIn,VisibilityMPH,Wind Direction,Wind SpeedMPH,Gust SpeedMPH,PrecipitationIn,Events,Conditions,WindDirDegrees,DateUTC
12:52 AM,48.9,45.0,86,30.22,10.0,NNE,4.6,-,N/A,,Partly Cloudy,20,2013-04-27 05:52:00
1:40 AM,48.2,44.6,87,30.22,10.0,SE,3.5,-,N/A,,Mostly Cloudy,130,2013-04-27 06:40:00
1:52 AM,48.0,44.1,86,30.21,10.0,SE,5.8,-,N/A,,Mostly Cloudy,140,2013-04-27 06:52:00
2:15 AM,46.4,44.6,93,30.20,10.0,SSE,6.9,-,N/A,,Scattered Clouds,160,2013-04-27 07:15:00
2:52 AM,46.0,43.0,89,30.18,9.0,SSE,5.8,-,N/A,,Clear,150,2013-04-27 07:52:00
3:52 AM,46.9,44.1,90,30.16,9.0,SSE,6.9,-,N/A,,Clear,160,2013-04-27 08:52:00
4:52 AM,46.0,43.0,89,30.14,7.0,SSE,4.6,-,N/A,,Clear,150,2013-04-27 09:52:00
5:52 AM,46.0,43.0,89,30.14,6.0,SSE,3.5,-,N/A,,Clear,160,2013-04-27 10:52:00
6:18 AM,44.6,42.8,93,30.15,6.0,Calm,Calm,-,N/A,,Mostly Cloudy,0,2013-04-27 11:18:00
6:52 AM,46.9,45.0,93,30.16,4.0,SSE,5.8,-,N/A,,Overcast,160,2013-04-27 11:52:00
7:52 AM,48.9,46.0,90,30.17,4.0,SSE,5.8,-,N/A,,Overcast,150,2013-04-27 12:52:00
8:52 AM,51.1,46.9,86,30.16,6.0,South,4.6,-,N/A,,Overcast,180,2013-04-27 13:52:00
9:52 AM,52.0,46.9,83,30.15,7.0,South,6.9,-,N/A,,Overcast,190,2013-04-27 14:52:00
10:52 AM,53.1,46.9,80,30.15,7.0,SSW,5.8,-,N/A,,Overcast,200,2013-04-27 15:52:00
11:47 AM,55.4,46.4,72,30.15,7.0,South,4.6,-,N/A,,Overcast,180,2013-04-27 16:47:00
11:52 AM,55.0,48.0,77,30.15,7.0,SSW,3.5,-,N/A,,Overcast,210,2013-04-27 16:52:00
12:52 PM,57.0,46.9,69,30.13,7.0,SSW,6.9,-,N/A,,Mostly Cloudy,210,2013-04-27 17:52:00
1:12 PM,59.0,48.2,67,30.12,8.0,Calm,Calm,-,N/A,,Scattered Clouds,0,2013-04-27 18:12:00
1:52 PM,60.1,48.0,64,30.10,8.0,SSW,5.8,-,N/A,,Partly Cloudy,210,2013-04-27 18:52:00
2:52 PM,64.0,48.0,56,30.07,8.0,South,4.6,-,N/A,,Clear,180,2013-04-27 19:52:00
3:52 PM,66.0,48.0,52,30.04,10.0,Variable,4.6,-,N/A,,Clear,0,2013-04-27 20:52:00
4:52 PM,66.9,48.0,51,30.01,10.0,SSE,4.6,-,N/A,,Clear,150,2013-04-27 21:52:00
5:52 PM,68.0,48.0,49,29.99,10.0,South,8.1,-,N/A,,Clear,170,2013-04-27 22:52:00
6:52 PM,66.9,48.0,51,29.97,10.0,SSE,11.5,-,N/A,,Clear,150,2013-04-27 23:52:00
7:52 PM,64.9,46.0,50,29.97,10.0,SSE,10.4,-,N/A,,Partly Cloudy,160,2013-04-28 00:52:00
8:52 PM,57.9,46.9,67,29.96,10.0,SSE,8.1,-,N/A,,Partly Cloudy,150,2013-04-28 01:52:00
9:52 PM,55.9,46.9,72,29.97,10.0,SSE,6.9,-,N/A,,Partly Cloudy,160,2013-04-28 02:52:00
10:52 PM,55.9,46.0,69,29.97,10.0,South,6.9,-,N/A,,Partly Cloudy,170,2013-04-28 03:52:00
11:52 PM,54.0,45.0,72,29.96,10.0,SSE,4.6,-,N/A,,Partly Cloudy,160,2013-04-28 04:52:00